createdAt,value
2019-02-15T00:01:36.752Z,99.90
2019-02-15T00:04:06.010Z,99.90
2019-02-15T00:06:35.202Z,99.90
2019-02-15T00:09:06.026Z,99.90
2019-02-15T00:11:35.262Z,99.90
2019-02-15T00:14:04.562Z,99.90
2019-02-15T00:16:33.744Z,99.90
2019-02-15T00:19:17.347Z,99.90
2019-02-15T00:21:48.846Z,99.90
2019-02-15T00:24:18.143Z,99.90
2019-02-15T00:26:47.360Z,99.90
2019-02-15T00:29:16.616Z,99.90
2019-02-15T00:31:45.940Z,99.90
2019-02-15T00:34:15.241Z,99.90
2019-02-15T00:36:44.563Z,99.90
2019-02-15T00:39:13.802Z,99.90
2019-02-15T00:41:43.332Z,99.90
2019-02-15T00:44:12.542Z,99.90
2019-02-15T00:47:03.650Z,99.90
2019-02-15T00:49:54.900Z,99.90
2019-02-15T00:52:45.937Z,99.90
2019-02-15T00:55:37.243Z,99.90
2019-02-15T00:58:25.666Z,99.90
2019-02-15T01:01:02.954Z,99.90
2019-02-15T01:04:06.462Z,99.90
2019-02-15T01:06:52.430Z,99.90
2019-02-15T01:09:46.730Z,99.90
2019-02-15T01:12:28.344Z,99.90
2019-02-15T01:14:57.621Z,99.90
2019-02-15T01:17:26.945Z,99.90
2019-02-15T01:19:56.300Z,99.90
2019-02-15T01:22:25.498Z,99.90
2019-02-15T01:24:55.174Z,99.90
2019-02-15T01:27:43.392Z,99.90
2019-02-15T01:30:43.056Z,99.90
2019-02-15T01:33:37.649Z,99.90
2019-02-15T01:36:37.986Z,99.90
2019-02-15T01:39:26.478Z,99.90
2019-02-15T01:42:14.678Z,99.90
2019-02-15T01:44:47.896Z,99.90
2019-02-15T01:47:21.005Z,99.90
2019-02-15T01:49:50.163Z,99.90
2019-02-15T01:52:19.513Z,99.90
2019-02-15T01:54:48.658Z,99.90
2019-02-15T01:57:17.858Z,99.90
2019-02-15T01:59:47.942Z,99.90
2019-02-15T02:02:17.271Z,99.90
2019-02-15T02:04:46.512Z,99.90
2019-02-15T02:07:34.870Z,99.90
2019-02-15T02:10:05.838Z,99.90
2019-02-15T02:12:35.137Z,99.90
2019-02-15T02:15:05.012Z,99.90
2019-02-15T02:17:34.278Z,99.90
2019-02-15T02:20:04.577Z,99.90
2019-02-15T02:22:33.899Z,99.90
2019-02-15T02:25:03.087Z,99.90
2019-02-15T02:27:32.367Z,99.90
2019-02-15T02:30:01.635Z,99.90
2019-02-15T02:32:30.899Z,99.90
2019-02-15T02:35:00.393Z,99.90
2019-02-15T02:37:29.704Z,99.90
2019-02-15T02:39:59.016Z,99.90
2019-02-15T02:42:28.272Z,99.90
2019-02-15T02:44:57.520Z,99.90
2019-02-15T02:47:26.765Z,99.90
2019-02-15T02:49:56.029Z,99.90
2019-02-15T02:52:25.223Z,99.90
2019-02-15T02:54:54.535Z,99.90
2019-02-15T02:57:23.703Z,99.90
2019-02-15T02:59:52.876Z,99.90
2019-02-15T03:02:22.115Z,99.90
2019-02-15T03:04:51.288Z,99.90
2019-02-15T03:07:20.469Z,99.90
2019-02-15T03:09:49.910Z,99.90
2019-02-15T03:12:19.264Z,99.90
2019-02-15T03:14:48.476Z,99.90
2019-02-15T03:17:17.814Z,99.90
2019-02-15T03:19:47.065Z,99.90
2019-02-15T03:22:16.272Z,99.90
2019-02-15T03:24:45.812Z,99.90
2019-02-15T03:27:15.119Z,99.90
2019-02-15T03:29:44.412Z,99.90
2019-02-15T03:32:13.652Z,99.90
2019-02-15T03:34:42.863Z,99.90
2019-02-15T03:37:34.107Z,99.90
2019-02-15T03:40:24.816Z,99.90
2019-02-15T03:42:54.084Z,99.90
2019-02-15T03:45:23.502Z,99.90
2019-02-15T03:47:52.720Z,99.90
2019-02-15T03:50:21.968Z,99.90
2019-02-15T03:52:51.267Z,99.90
2019-02-15T03:55:20.558Z,99.90
2019-02-15T03:57:49.936Z,99.90
2019-02-15T04:00:19.212Z,99.90
2019-02-15T04:02:48.436Z,99.90
2019-02-15T04:05:17.729Z,99.90
2019-02-15T04:07:47.031Z,99.90
2019-02-15T04:10:16.325Z,99.90
2019-02-15T04:12:45.591Z,99.90
2019-02-15T04:15:14.891Z,99.90
2019-02-15T04:17:44.155Z,99.90
2019-02-15T04:20:13.501Z,99.90
2019-02-15T04:22:42.733Z,99.90
2019-02-15T04:25:11.999Z,99.90
2019-02-15T04:27:41.248Z,99.90
2019-02-15T04:30:10.729Z,99.90
2019-02-15T04:32:40.077Z,99.90
2019-02-15T04:35:09.367Z,99.90
2019-02-15T04:37:38.615Z,99.90
2019-02-15T04:40:08.685Z,99.90
2019-02-15T04:42:38.021Z,99.90
2019-02-15T04:45:07.402Z,99.90
2019-02-15T04:47:36.669Z,99.90
2019-02-15T04:50:07.243Z,99.90
2019-02-15T04:52:36.485Z,99.90
2019-02-15T04:55:06.289Z,99.90
2019-02-15T04:57:35.656Z,99.90
2019-02-15T05:00:05.977Z,99.90
2019-02-15T05:02:35.148Z,99.90
2019-02-15T05:05:04.526Z,99.90
2019-02-15T05:07:33.837Z,99.90
2019-02-15T05:10:03.139Z,99.90
2019-02-15T05:12:32.645Z,99.90
2019-02-15T05:15:01.916Z,99.90
2019-02-15T05:17:31.290Z,99.90
2019-02-15T05:20:00.633Z,99.90
2019-02-15T05:22:29.817Z,99.90
2019-02-15T05:24:59.083Z,99.90
2019-02-15T05:27:28.251Z,99.90
2019-02-15T05:29:57.499Z,99.90
2019-02-15T05:32:26.675Z,99.90
2019-02-15T05:34:56.021Z,99.90
2019-02-15T05:37:25.395Z,99.90
2019-02-15T05:39:54.683Z,99.90
2019-02-15T05:42:23.947Z,99.90
2019-02-15T05:45:03.034Z,99.90
2019-02-15T05:47:24.263Z,99.90
2019-02-15T05:49:53.423Z,99.90
2019-02-15T05:52:22.658Z,99.90
2019-02-15T05:54:51.943Z,99.90
2019-02-15T05:57:21.212Z,99.90
2019-02-15T05:59:50.651Z,99.90
2019-02-15T06:02:19.949Z,99.90
2019-02-15T06:04:49.292Z,99.90
2019-02-15T06:07:18.569Z,99.90
2019-02-15T06:09:52.211Z,99.90
2019-02-15T06:12:22.636Z,99.90
2019-02-15T06:14:51.993Z,99.90
2019-02-15T06:17:21.483Z,99.90
2019-02-15T06:19:50.682Z,99.90
2019-02-15T06:22:19.950Z,99.90
2019-02-15T06:24:49.285Z,99.90
2019-02-15T06:27:18.739Z,99.90
2019-02-15T06:29:48.055Z,99.90
2019-02-15T06:32:17.357Z,99.90
2019-02-15T06:34:46.655Z,99.90
2019-02-15T06:37:16.007Z,99.90
2019-02-15T06:39:45.340Z,99.90
2019-02-15T06:42:14.794Z,99.90
2019-02-15T06:44:44.116Z,99.90
2019-02-15T06:47:13.398Z,99.90
2019-02-15T06:49:42.634Z,99.90
2019-02-15T06:52:11.882Z,99.90
2019-02-15T06:54:41.134Z,99.90
2019-02-15T06:57:10.396Z,99.90
2019-02-15T06:59:54.176Z,99.90
2019-02-15T07:02:45.211Z,99.90
2019-02-15T07:05:25.740Z,99.90
2019-02-15T07:07:55.478Z,99.90
2019-02-15T07:10:24.834Z,99.90
2019-02-15T07:12:54.213Z,99.90
2019-02-15T07:15:23.487Z,99.90
2019-02-15T07:17:52.811Z,99.90
2019-02-15T07:20:22.208Z,99.90
2019-02-15T07:22:52.110Z,99.90
2019-02-15T07:25:21.413Z,99.90
2019-02-15T07:27:50.811Z,99.90
2019-02-15T07:30:20.197Z,99.90
2019-02-15T07:32:49.532Z,99.90
2019-02-15T07:35:18.826Z,99.90
2019-02-15T07:37:48.160Z,99.90
2019-02-15T07:40:17.436Z,99.90
2019-02-15T07:42:46.719Z,99.90
2019-02-15T07:45:17.729Z,99.90
2019-02-15T07:47:47.283Z,99.90
2019-02-15T07:50:16.527Z,99.90
2019-02-15T07:52:45.846Z,99.90
2019-02-15T07:55:15.093Z,99.90
2019-02-15T07:57:44.320Z,99.90
2019-02-15T08:00:14.080Z,99.90
2019-02-15T08:02:43.352Z,99.90
2019-02-15T08:05:12.622Z,99.90
2019-02-15T08:07:41.842Z,99.90
2019-02-15T08:10:11.321Z,99.90
2019-02-15T08:12:41.496Z,99.90
2019-02-15T08:15:10.830Z,99.90
2019-02-15T08:17:40.207Z,99.90
2019-02-15T08:20:10.791Z,99.90
2019-02-15T08:22:40.076Z,99.90
2019-02-15T08:25:09.568Z,99.90
2019-02-15T08:27:38.846Z,99.90
2019-02-15T08:30:09.544Z,99.90
2019-02-15T08:32:38.832Z,99.90
2019-02-15T08:35:08.880Z,99.90
2019-02-15T08:37:38.191Z,99.90
2019-02-15T08:40:08.662Z,99.90
2019-02-15T08:42:37.930Z,99.90
2019-02-15T08:45:08.992Z,99.90
2019-02-15T08:47:39.794Z,99.90
2019-02-15T08:50:10.085Z,99.90
2019-02-15T08:52:39.346Z,99.90
2019-02-15T08:55:09.425Z,99.90
2019-02-15T08:57:38.811Z,99.90
2019-02-15T09:00:09.494Z,99.90
2019-02-15T09:02:39.234Z,99.90
2019-02-15T09:05:10.422Z,99.90
2019-02-15T09:07:39.782Z,99.90
2019-02-15T09:10:10.664Z,99.90
2019-02-15T09:12:40.102Z,99.90
2019-02-15T09:15:12.431Z,99.90
2019-02-15T09:17:41.915Z,99.90
2019-02-15T09:20:12.189Z,99.90
2019-02-15T09:22:41.420Z,99.90
2019-02-15T09:25:11.106Z,99.90
2019-02-15T09:28:14.936Z,99.90
2019-02-15T09:30:47.440Z,99.90
2019-02-15T09:33:16.790Z,99.90
2019-02-15T09:35:46.186Z,99.90
2019-02-15T09:38:15.462Z,99.90
2019-02-15T09:40:44.858Z,99.90
2019-02-15T09:43:14.096Z,99.90
2019-02-15T09:45:43.370Z,99.90
2019-02-15T09:48:12.666Z,99.90
2019-02-15T09:50:42.153Z,99.90
2019-02-15T09:53:11.474Z,99.90
2019-02-15T09:55:40.667Z,99.90
2019-02-15T09:58:09.982Z,99.90
2019-02-15T10:00:39.180Z,99.90
2019-02-15T10:03:08.595Z,99.90
2019-02-15T10:05:37.930Z,99.90
2019-02-15T10:08:07.275Z,99.90
2019-02-15T10:10:36.483Z,99.90
2019-02-15T10:13:05.754Z,99.60
2019-02-15T10:15:35.056Z,98.70
2019-02-15T10:18:04.344Z,98.20
2019-02-15T10:20:33.620Z,98.90
2019-02-15T10:23:02.996Z,98.20
2019-02-15T10:25:32.326Z,96.90
2019-02-15T10:28:01.596Z,95.80
2019-02-15T10:30:30.784Z,96.00
2019-02-15T10:33:00.030Z,96.30
2019-02-15T10:35:29.200Z,94.80
2019-02-15T10:37:58.434Z,94.40
2019-02-15T10:40:27.654Z,94.00
2019-02-15T10:42:56.929Z,94.00
2019-02-15T10:45:26.188Z,93.50
2019-02-15T10:47:55.541Z,93.00
2019-02-15T10:50:24.738Z,92.30
2019-02-15T10:52:54.144Z,92.00
2019-02-15T10:55:23.449Z,91.10
2019-02-15T10:57:52.677Z,90.10
2019-02-15T11:00:22.136Z,89.60
2019-02-15T11:02:51.350Z,90.00
2019-02-15T11:05:20.679Z,90.00
2019-02-15T11:07:49.881Z,88.10
2019-02-15T11:10:19.216Z,87.20
2019-02-15T11:12:48.617Z,88.80
2019-02-15T11:15:17.826Z,88.10
2019-02-15T11:17:47.092Z,88.50
2019-02-15T11:20:16.708Z,85.30
2019-02-15T11:22:46.038Z,84.80
2019-02-15T11:25:15.387Z,86.50
2019-02-15T11:27:44.675Z,87.20
2019-02-15T11:30:14.684Z,84.90
2019-02-15T11:32:43.909Z,84.80
2019-02-15T11:35:13.190Z,80.90
2019-02-15T11:37:42.479Z,85.90
2019-02-15T11:40:12.625Z,85.20
2019-02-15T11:42:41.802Z,82.70
2019-02-15T11:45:11.888Z,84.00
2019-02-15T11:47:41.077Z,84.60
2019-02-15T11:50:11.624Z,84.00
2019-02-15T11:52:40.789Z,82.30
2019-02-15T11:55:10.097Z,81.90
2019-02-15T11:57:39.311Z,80.00
2019-02-15T12:00:14.369Z,77.60
2019-02-15T12:02:42.256Z,78.10
2019-02-15T12:05:11.544Z,78.30
2019-02-15T12:07:40.837Z,75.80
2019-02-15T12:10:10.036Z,73.30
2019-02-15T12:12:39.313Z,71.60
2019-02-15T12:15:08.901Z,71.20
2019-02-15T12:17:38.234Z,69.40
2019-02-15T12:20:08.549Z,67.10
2019-02-15T12:22:38.096Z,67.10
2019-02-15T12:25:07.504Z,67.00
2019-02-15T12:27:36.691Z,65.40
2019-02-15T12:30:06.690Z,65.10
2019-02-15T12:32:35.891Z,67.90
2019-02-15T12:35:05.260Z,68.50
2019-02-15T12:37:34.464Z,67.70
2019-02-15T12:40:03.712Z,67.80
2019-02-15T12:42:32.968Z,67.10
2019-02-15T12:45:02.183Z,63.70
2019-02-15T12:47:31.399Z,60.10
2019-02-15T12:50:00.690Z,63.10
2019-02-15T12:52:29.992Z,67.80
2019-02-15T12:54:59.239Z,72.50
2019-02-15T12:57:28.494Z,76.50
2019-02-15T12:59:57.662Z,81.00
2019-02-15T13:02:26.822Z,85.80
2019-02-15T13:04:56.068Z,88.90
2019-02-15T13:07:25.253Z,90.40
2019-02-15T13:09:54.426Z,91.40
2019-02-15T13:12:23.714Z,92.20
2019-02-15T13:14:52.901Z,93.50
2019-02-15T13:17:24.853Z,94.70
2019-02-15T13:19:53.230Z,96.10
2019-02-15T13:22:22.511Z,97.10
2019-02-15T13:24:51.869Z,98.00
2019-02-15T13:27:21.187Z,98.60
2019-02-15T13:29:50.778Z,99.90
2019-02-15T13:32:20.155Z,99.90
2019-02-15T13:34:49.500Z,99.90
2019-02-15T13:37:18.801Z,99.90
2019-02-15T13:39:48.081Z,99.90
2019-02-15T13:42:17.416Z,99.90
2019-02-15T13:44:46.812Z,99.90
2019-02-15T13:47:16.282Z,99.90
2019-02-15T13:49:45.523Z,99.90
2019-02-15T13:52:14.715Z,99.90
2019-02-15T13:54:43.996Z,99.90
2019-02-15T13:57:13.241Z,99.90
2019-02-15T13:59:42.506Z,99.90
2019-02-15T14:02:11.715Z,99.90
2019-02-15T14:04:40.948Z,99.90
2019-02-15T14:07:18.307Z,99.90
2019-02-15T14:09:47.582Z,99.90
2019-02-15T14:12:16.930Z,99.90
2019-02-15T14:14:46.210Z,99.90
2019-02-15T14:17:15.416Z,99.90
2019-02-15T14:19:44.680Z,99.90
2019-02-15T14:22:14.030Z,99.90
2019-02-15T14:24:43.335Z,99.90
2019-02-15T14:27:12.603Z,99.90
2019-02-15T14:29:41.948Z,99.90
2019-02-15T14:32:11.355Z,99.90
2019-02-15T14:34:40.650Z,99.90
2019-02-15T14:37:09.980Z,99.90
2019-02-15T14:39:39.311Z,99.90
2019-02-15T14:42:08.619Z,99.90
2019-02-15T14:44:41.170Z,99.90
2019-02-15T14:47:10.425Z,99.90
2019-02-15T14:49:39.764Z,99.90
2019-02-15T14:52:09.009Z,99.90
2019-02-15T14:54:38.304Z,99.90
2019-02-15T14:57:07.650Z,99.90
2019-02-15T14:59:38.926Z,99.90
2019-02-15T15:02:08.017Z,99.90
2019-02-15T15:04:37.391Z,99.90
2019-02-15T15:07:06.816Z,99.90
2019-02-15T15:09:36.110Z,99.90
2019-02-15T15:12:05.483Z,99.90
2019-02-15T15:14:34.883Z,99.90
2019-02-15T15:17:04.443Z,99.90
2019-02-15T15:19:33.733Z,99.90
2019-02-15T15:22:03.059Z,99.90
2019-02-15T15:24:32.335Z,99.90
2019-02-15T15:27:01.637Z,99.90
2019-02-15T15:29:30.980Z,99.90
2019-02-15T15:32:00.355Z,99.90
2019-02-15T15:34:29.644Z,99.90
2019-02-15T15:36:58.856Z,99.90
2019-02-15T15:39:28.115Z,99.90
2019-02-15T15:41:57.657Z,99.90
2019-02-15T15:44:27.038Z,99.90
2019-02-15T15:46:56.599Z,99.90
2019-02-15T15:49:25.895Z,99.90
2019-02-15T15:51:55.202Z,99.90
2019-02-15T15:54:24.484Z,98.50
2019-02-15T15:56:53.821Z,94.50
2019-02-15T15:59:23.041Z,94.80
2019-02-15T16:01:52.358Z,96.10
2019-02-15T16:04:21.747Z,97.30
2019-02-15T16:06:51.079Z,99.90
2019-02-15T16:09:20.389Z,99.90
2019-02-15T16:11:49.670Z,99.90
2019-02-15T16:14:19.055Z,99.90
2019-02-15T16:16:48.473Z,99.90
2019-02-15T16:19:17.813Z,99.90
2019-02-15T16:21:47.234Z,99.90
2019-02-15T16:24:16.479Z,99.90
2019-02-15T16:26:45.757Z,99.90
2019-02-15T16:29:14.985Z,99.90
2019-02-15T16:31:44.335Z,99.90
2019-02-15T16:34:13.653Z,99.90
2019-02-15T16:36:42.846Z,99.90
2019-02-15T16:39:12.155Z,99.90
2019-02-15T16:41:41.328Z,99.90
2019-02-15T16:44:10.657Z,99.90
2019-02-15T16:46:39.988Z,99.90
2019-02-15T16:49:09.379Z,99.90
2019-02-15T16:51:38.706Z,99.90
2019-02-15T16:54:08.040Z,99.90
2019-02-15T16:56:37.381Z,99.90
2019-02-15T16:59:06.618Z,99.90
2019-02-15T17:01:35.942Z,99.90
2019-02-15T17:04:05.236Z,99.90
2019-02-15T17:06:34.534Z,99.90
2019-02-15T17:09:06.459Z,99.90
2019-02-15T17:11:35.760Z,99.90
2019-02-15T17:14:05.035Z,99.90
2019-02-15T17:16:34.343Z,99.90
2019-02-15T17:19:03.620Z,99.90
2019-02-15T17:21:32.950Z,99.90
2019-02-15T17:24:02.337Z,99.90
2019-02-15T17:26:31.704Z,99.90
2019-02-15T17:29:00.991Z,99.90
2019-02-15T17:31:30.340Z,99.90
2019-02-15T17:33:59.635Z,99.90
2019-02-15T17:36:28.907Z,99.90
2019-02-15T17:38:58.186Z,99.90
2019-02-15T17:41:27.503Z,99.90
2019-02-15T17:43:56.692Z,99.90
2019-02-15T17:46:25.939Z,99.90
2019-02-15T17:49:00.769Z,99.90
2019-02-15T17:51:26.194Z,99.90
2019-02-15T17:53:55.546Z,99.90
2019-02-15T17:56:24.859Z,99.90
2019-02-15T17:58:54.192Z,99.90
2019-02-15T18:01:23.563Z,99.90
2019-02-15T18:03:52.957Z,99.90
2019-02-15T18:06:22.279Z,99.90
2019-02-15T18:08:51.451Z,99.90
2019-02-15T18:11:20.728Z,99.90
2019-02-15T18:13:49.986Z,99.90
2019-02-15T18:16:19.369Z,99.90
2019-02-15T18:18:48.554Z,99.90
2019-02-15T18:21:17.943Z,99.90
2019-02-15T18:23:47.252Z,99.90
2019-02-15T18:26:16.557Z,99.90
2019-02-15T18:28:45.842Z,99.90
2019-02-15T18:31:16.476Z,99.90
2019-02-15T18:33:45.819Z,99.90
2019-02-15T18:36:15.244Z,99.90
2019-02-15T18:38:44.587Z,99.90
2019-02-15T18:41:13.981Z,99.90
2019-02-15T18:43:43.255Z,99.90
2019-02-15T18:46:12.546Z,99.90
2019-02-15T18:48:41.953Z,99.90
2019-02-15T18:51:11.344Z,99.90
2019-02-15T18:53:40.629Z,99.90
2019-02-15T18:56:10.011Z,99.90
2019-02-15T18:58:39.372Z,99.90
2019-02-15T19:01:08.680Z,99.90
2019-02-15T19:03:37.952Z,99.90
2019-02-15T19:06:07.358Z,99.90
2019-02-15T19:08:36.718Z,99.90
2019-02-15T19:11:05.996Z,99.90
2019-02-15T19:13:35.316Z,99.90
2019-02-15T19:16:04.682Z,99.90
2019-02-15T19:18:34.039Z,99.90
2019-02-15T19:21:03.518Z,99.90
2019-02-15T19:23:32.820Z,99.90
2019-02-15T19:26:02.279Z,99.90
2019-02-15T19:28:31.816Z,99.90
2019-02-15T19:31:01.179Z,99.90
2019-02-15T19:33:30.527Z,99.90
2019-02-15T19:35:59.835Z,99.90
2019-02-15T19:38:29.218Z,99.90
2019-02-15T19:40:58.483Z,99.90
2019-02-15T19:43:27.867Z,99.90
2019-02-15T19:45:57.275Z,99.90
2019-02-15T19:48:26.642Z,99.90
2019-02-15T19:50:56.042Z,99.90
2019-02-15T19:53:25.423Z,99.90
2019-02-15T19:55:54.916Z,99.90
2019-02-15T19:58:24.332Z,99.90
2019-02-15T20:00:53.699Z,99.90
2019-02-15T20:03:25.086Z,99.90
2019-02-15T20:05:54.498Z,99.90
2019-02-15T20:08:23.969Z,99.90
2019-02-15T20:10:53.249Z,99.90
2019-02-15T20:13:22.694Z,99.90
2019-02-15T20:15:52.347Z,99.90
2019-02-15T20:18:21.621Z,99.90
2019-02-15T20:20:50.978Z,99.90
2019-02-15T20:23:20.352Z,99.90
2019-02-15T20:25:49.714Z,99.90
2019-02-15T20:28:18.952Z,99.90
2019-02-15T20:30:48.226Z,99.90
2019-02-15T20:33:17.522Z,99.90
2019-02-15T20:35:47.064Z,99.90
2019-02-15T20:38:16.362Z,99.90
2019-02-15T20:40:45.669Z,99.90
2019-02-15T20:43:14.975Z,99.90
2019-02-15T20:45:44.366Z,99.90
2019-02-15T20:48:13.684Z,99.90
2019-02-15T20:50:43.017Z,99.90
2019-02-15T20:53:12.474Z,99.90
2019-02-15T20:55:41.830Z,99.90
2019-02-15T20:58:11.038Z,99.90
2019-02-15T21:00:40.328Z,99.90
2019-02-15T21:03:09.742Z,99.90
2019-02-15T21:05:38.963Z,99.90
2019-02-15T21:08:08.250Z,99.90
2019-02-15T21:10:37.612Z,99.90
2019-02-15T21:13:07.025Z,99.90
2019-02-15T21:15:36.377Z,99.90
2019-02-15T21:18:05.672Z,99.90
2019-02-15T21:20:34.967Z,99.90
2019-02-15T21:23:04.359Z,99.90
2019-02-15T21:25:33.728Z,99.90
2019-02-15T21:28:03.108Z,99.90
2019-02-15T21:30:32.378Z,99.90
2019-02-15T21:33:01.688Z,99.90
2019-02-15T21:35:30.984Z,99.90
2019-02-15T21:38:00.525Z,99.90
2019-02-15T21:40:29.889Z,99.90
2019-02-15T21:42:59.169Z,99.90
2019-02-15T21:45:28.610Z,99.90
2019-02-15T21:47:57.864Z,99.90
2019-02-15T21:50:27.228Z,99.90
2019-02-15T21:52:56.620Z,99.90
2019-02-15T21:55:26.031Z,99.90
2019-02-15T21:58:01.647Z,99.90
2019-02-15T22:00:27.210Z,99.90
2019-02-15T22:02:56.752Z,99.90
2019-02-15T22:05:26.110Z,99.90
2019-02-15T22:07:55.520Z,99.90
2019-02-15T22:10:24.909Z,99.90
2019-02-15T22:12:54.336Z,99.90
2019-02-15T22:15:23.809Z,99.90
2019-02-15T22:17:53.386Z,99.90
2019-02-15T22:20:26.771Z,99.90
2019-02-15T22:22:53.788Z,99.90
2019-02-15T22:25:23.173Z,99.90
2019-02-15T22:27:52.605Z,99.90
2019-02-15T22:30:22.026Z,99.90
2019-02-15T22:32:51.236Z,99.90
2019-02-15T22:35:20.590Z,99.90
2019-02-15T22:37:50.154Z,99.90
2019-02-15T22:40:34.502Z,99.90
2019-02-15T22:43:16.852Z,99.90
2019-02-15T22:45:46.223Z,99.90
2019-02-15T22:48:15.490Z,99.90
2019-02-15T22:50:44.683Z,99.90
2019-02-15T22:53:13.957Z,99.90
2019-02-15T22:55:43.226Z,99.90
2019-02-15T22:58:12.491Z,99.90
2019-02-15T23:00:48.785Z,99.90
2019-02-15T23:03:20.014Z,99.90
2019-02-15T23:05:49.336Z,99.90
2019-02-15T23:08:18.623Z,99.90
2019-02-15T23:10:48.045Z,99.90
2019-02-15T23:13:17.433Z,99.90
2019-02-15T23:15:46.911Z,99.90
2019-02-15T23:18:16.549Z,99.90
2019-02-15T23:20:45.912Z,99.90
2019-02-15T23:23:15.433Z,99.90
2019-02-15T23:25:44.930Z,99.90
2019-02-15T23:28:14.368Z,99.90
2019-02-15T23:30:43.695Z,99.90
2019-02-15T23:33:13.081Z,99.90
2019-02-15T23:35:42.543Z,99.90
2019-02-15T23:38:12.071Z,99.90
2019-02-15T23:40:42.987Z,99.90
2019-02-15T23:43:12.321Z,99.90
2019-02-15T23:45:41.893Z,99.90
2019-02-15T23:48:11.283Z,99.90
2019-02-15T23:50:44.361Z,99.90
2019-02-15T23:53:13.784Z,99.90
2019-02-15T23:55:43.635Z,99.90
2019-02-15T23:58:12.960Z,99.90
